Pagrindinis puslapis
METAR-TAF:

METAR-TAF

Oro uostai :

Gracas, Austrija

platuma: 47-00N, ilguma: 015-26E, Aukštis: 340 m

Dabartinis oras

Ataskaita buvo paskelbta 20 minutes, ne 23:20 UTC
Vėjas 1 kt nuo kintamojo kryptimis
Temperatūra 2°C
Drėgmė 60%
Slėgis 1032 hPa
Matomumas 10 km arba daugiau

METAR: LOWG 072320Z AUTO VRB01KT 9999 NCD 02/M05 Q1032

Laikas: 01:40 (23:40 UTC)

Prognozė

Ataskaita buvo paskelbta 25 minutes, ne 23:15 UTC
Prognozė galioja nuo 08 metu 00 UTC su 08 metu 24 UTC
Vėjas 4 kt nuo kintamojo kryptimis
Matomumas 10 km arba daugiau
nėra debesų žemiau 1500 m ir nėra kamuolinių lietaus debesų
Laikinai
nuo 08 metu 11 UTC su 08 metu 18 UTC
Vėjas 10 kt iš Pietų

TAF: LOWG 072315Z 0800/0824 VRB04KT CAVOK TX20/0815Z TNM01/0804Z TEMPO 0811/0818 17010KT

Orai ataskaitas ir orų prognozės (METAR, TAF).

turimą stotys yra geltonos ir raudonos taškus žemėlapyje.

Perkelti pele per norėdami pamatyti stoties vardą.

Tada spustelėkite, norėdami matyti oro stebėjimo ir prognozės.

Norėdami pakeisti žemėlapį: spustelėkite ant žalios mygtukų su juodo kryžiaus žemyn,; žalią mygtuką su brūkšneliu, jei norite nutolinti; arba žalių rodyklių gretimoms žemėlapius.


METAR-TAF: